Time;durP1;ratioP1;P1;durP2;ratioP2;P2;SDS_P1;SDS_P2;PMS_P1;PMS_P2;Temp;Humidity;BMP_temperature;BMP_pressure;BME280_temperature;BME280_humidity;BME280_pressure;Samples;Min_cycle;Max_cycle;Signal;HPM_P1;HPM_P2
2022/04/12 00:00:26;;;;;;;;;8.00;6.00;;;;;;;;5009322;28;51198;-64
2022/04/12 00:02:51;;;;;;;;;3.33;3.33;;;;;;;;5011247;28;51288;-63
2022/04/12 00:05:16;;;;;;;;;5.00;5.00;;;;;;;;5011355;28;51331;-63
2022/04/12 00:07:43;;;;;;;;;5.00;5.00;;;;;;;;5011494;28;51068;-63
2022/04/12 00:10:09;;;;;;;;;5.00;5.00;;;;;;;;5009238;28;51060;-63
2022/04/12 00:12:35;;;;;;;;;5.00;5.00;;;;;;;;5010706;28;51075;-63
2022/04/12 00:15:00;;;;;;;;;6.33;6.00;;;;;;;;5007840;28;51553;-63
2022/04/12 00:20:09;;;;;;;;;5.33;4.00;;;;;;;;5006460;28;51174;-63
2022/04/12 00:22:35;;;;;;;;;5.00;5.00;;;;;;;;5008409;28;51033;-63
2022/04/12 00:25:00;;;;;;;;;4.00;4.00;;;;;;;;5005104;28;51416;-63
2022/04/12 00:27:26;;;;;;;;;6.00;6.00;;;;;;;;5009033;28;51166;-63
2022/04/12 00:29:51;;;;;;;;;5.00;4.00;;;;;;;;5005787;28;51313;-63
2022/04/12 00:32:17;;;;;;;;;3.00;2.33;;;;;;;;5007342;28;51080;-63
2022/04/12 00:34:42;;;;;;;;;5.00;5.00;;;;;;;;5006461;28;51106;-64
2022/04/12 00:37:07;;;;;;;;;4.00;4.00;;;;;;;;5003119;28;54451;-64
2022/04/12 00:39:34;;;;;;;;;5.00;5.00;;;;;;;;5008491;28;51064;-64
2022/04/12 00:41:59;;;;;;;;;6.00;6.00;;;;;;;;5006955;28;51214;-64
2022/04/12 00:44:25;;;;;;;;;5.67;5.67;;;;;;;;5008664;28;51313;-64
2022/04/12 00:46:50;;;;;;;;;4.33;4.33;;;;;;;;5004523;28;51289;-64
2022/04/12 00:49:15;;;;;;;;;7.00;4.67;;;;;;;;5007729;28;51164;-64
2022/04/12 00:51:40;;;;;;;;;4.33;4.00;;;;;;;;5005358;28;52069;-64
2022/04/12 00:54:06;;;;;;;;;4.00;4.00;;;;;;;;5006848;28;51357;-64
2022/04/12 00:56:31;;;;;;;;;4.67;4.33;;;;;;;;5004260;28;52780;-64
2022/04/12 00:58:57;;;;;;;;;4.00;4.00;;;;;;;;5006110;28;51168;-63
2022/04/12 01:01:22;;;;;;;;;6.67;6.00;;;;;;;;5001878;28;51607;-61
2022/04/12 01:03:47;;;;;;;;;5.67;5.67;;;;;;;;5000400;28;52087;-61
2022/04/12 01:06:13;;;;;;;;;6.00;5.00;;;;;;;;5006280;28;52075;-61
2022/04/12 01:08:38;;;;;;;;;3.67;3.67;;;;;;;;5004354;28;52737;-61
2022/04/12 01:11:10;;;;;;;;;5.00;5.00;;;;;;;;5000777;28;51328;-59
2022/04/12 01:13:36;;;;;;;;;4.00;4.00;;;;;;;;5004911;28;51100;-60
2022/04/12 01:16:04;;;;;;;;;5.00;5.00;;;;;;;;5003342;28;51958;-60
2022/04/12 01:18:29;;;;;;;;;5.00;5.00;;;;;;;;5003592;28;51141;-60
2022/04/12 01:20:55;;;;;;;;;4.67;4.67;;;;;;;;5003224;28;51543;-61
2022/04/12 01:23:29;;;;;;;;;4.00;4.00;;;;;;;;5005532;28;51362;-60
2022/04/12 01:25:54;;;;;;;;;5.33;5.00;;;;;;;;5002799;28;51435;-60
2022/04/12 01:28:19;;;;;;;;;4.67;4.67;;;;;;;;5003600;28;52458;-60
2022/04/12 01:30:45;;;;;;;;;3.00;3.00;;;;;;;;5000607;28;52444;-60
2022/04/12 01:33:10;;;;;;;;;6.00;6.00;;;;;;;;5004538;28;51072;-60
2022/04/12 01:35:35;;;;;;;;;4.67;4.67;;;;;;;;5003993;28;52077;-60
2022/04/12 01:38:01;;;;;;;;;5.00;5.00;;;;;;;;5003431;28;51221;-60
2022/04/12 01:40:26;;;;;;;;;6.00;5.67;;;;;;;;5003023;28;51511;-60
2022/04/12 01:42:52;;;;;;;;;5.00;3.67;;;;;;;;5005268;28;51090;-60
2022/04/12 01:45:18;;;;;;;;;5.33;5.33;;;;;;;;5005275;28;53249;-60
2022/04/12 01:47:43;;;;;;;;;5.00;5.00;;;;;;;;5004002;28;51114;-60
2022/04/12 01:50:09;;;;;;;;;5.00;5.00;;;;;;;;5003934;28;51120;-60
2022/04/12 01:52:34;;;;;;;;;5.00;5.00;;;;;;;;5006292;28;51206;-60
2022/04/12 01:55:00;;;;;;;;;5.67;5.00;;;;;;;;5004059;28;53526;-60
2022/04/12 01:57:25;;;;;;;;;6.00;6.00;;;;;;;;5003670;28;51912;-62
2022/04/12 01:59:50;;;;;;;;;6.33;6.00;;;;;;;;5006555;28;50991;-60
2022/04/12 02:02:15;;;;;;;;;6.67;6.00;;;;;;;;5001605;28;50957;-60
2022/04/12 02:04:41;;;;;;;;;5.00;5.00;;;;;;;;5003128;28;52385;-60
2022/04/12 02:07:06;;;;;;;;;6.00;5.00;;;;;;;;5001873;28;51938;-60
2022/04/12 02:09:31;;;;;;;;;4.67;4.67;;;;;;;;5002021;28;51260;-60
2022/04/12 02:11:58;;;;;;;;;5.00;5.00;;;;;;;;5004052;28;51188;-60
2022/04/12 02:14:23;;;;;;;;;6.00;6.00;;;;;;;;5002795;28;51989;-60
2022/04/12 02:16:49;;;;;;;;;5.00;5.00;;;;;;;;5002542;28;51104;-60
2022/04/12 02:19:14;;;;;;;;;4.00;4.00;;;;;;;;5004139;28;51229;-60
2022/04/12 02:21:39;;;;;;;;;7.00;6.67;;;;;;;;5002559;28;51184;-60
2022/04/12 02:24:05;;;;;;;;;4.67;4.67;;;;;;;;5003765;28;51705;-60
2022/04/12 02:26:30;;;;;;;;;4.33;4.33;;;;;;;;5003232;28;51216;-60
2022/04/12 02:28:55;;;;;;;;;5.00;5.00;;;;;;;;5001576;28;51236;-61
2022/04/12 02:31:21;;;;;;;;;6.00;6.00;;;;;;;;5003215;28;52092;-60
2022/04/12 02:33:46;;;;;;;;;6.00;5.00;;;;;;;;5002695;28;51178;-60
2022/04/12 02:36:11;;;;;;;;;5.00;4.00;;;;;;;;5005764;28;51195;-60
2022/04/12 02:38:36;;;;;;;;;5.33;5.33;;;;;;;;5003572;28;51393;-60
2022/04/12 02:41:01;;;;;;;;;6.00;5.50;;;;;;;;5002595;28;51177;-60
2022/04/12 02:43:27;;;;;;;;;5.00;5.00;;;;;;;;5003696;28;51429;-60
2022/04/12 02:45:52;;;;;;;;;6.00;6.00;;;;;;;;5004075;28;51203;-60
2022/04/12 02:48:17;;;;;;;;;5.00;5.00;;;;;;;;5002049;28;51263;-60
2022/04/12 02:50:42;;;;;;;;;4.33;4.33;;;;;;;;5002995;28;51325;-60
2022/04/12 02:53:08;;;;;;;;;6.00;5.33;;;;;;;;5005316;28;51207;-60
2022/04/12 02:55:33;;;;;;;;;5.00;5.00;;;;;;;;5003253;28;51147;-60
2022/04/12 02:57:58;;;;;;;;;6.00;5.00;;;;;;;;5004562;28;51143;-60
2022/04/12 03:00:23;;;;;;;;;4.33;4.33;;;;;;;;5003535;28;50985;-60
2022/04/12 03:02:48;;;;;;;;;4.67;4.67;;;;;;;;5006133;28;51683;-60
2022/04/12 03:05:14;;;;;;;;;6.00;6.00;;;;;;;;5003075;28;51042;-59
2022/04/12 03:07:40;;;;;;;;;5.00;4.00;;;;;;;;5001263;28;51236;-60
2022/04/12 03:10:05;;;;;;;;;4.00;4.00;;;;;;;;5003942;28;51222;-60
2022/04/12 03:12:30;;;;;;;;;5.00;5.00;;;;;;;;5000918;28;52105;-60
2022/04/12 03:14:55;;;;;;;;;4.00;3.33;;;;;;;;5004075;28;51253;-60
2022/04/12 03:17:21;;;;;;;;;4.67;4.00;;;;;;;;5002506;28;51188;-60
2022/04/12 03:19:46;;;;;;;;;5.33;5.00;;;;;;;;5004357;28;50883;-60
2022/04/12 03:22:12;;;;;;;;;6.00;5.00;;;;;;;;5001240;28;51886;-60
2022/04/12 03:24:37;;;;;;;;;2.67;2.67;;;;;;;;5001518;28;52203;-60
2022/04/12 03:27:02;;;;;;;;;6.75;6.00;;;;;;;;5001535;28;51069;-60
2022/04/12 03:29:28;;;;;;;;;5.67;5.00;;;;;;;;4987219;28;51400;-61
2022/04/12 03:31:53;;;;;;;;;3.33;2.33;;;;;;;;5004599;28;52603;-61
2022/04/12 03:34:19;;;;;;;;;4.50;4.50;;;;;;;;5005421;28;51198;-59
2022/04/12 03:36:44;;;;;;;;;4.00;4.00;;;;;;;;5002080;28;51379;-62
2022/04/12 03:39:10;;;;;;;;;5.00;5.00;;;;;;;;5004004;28;51076;-62
2022/04/12 03:41:36;;;;;;;;;5.00;5.00;;;;;;;;5002132;28;51863;-60
2022/04/12 03:44:01;;;;;;;;;4.00;4.00;;;;;;;;5001289;28;51053;-60
2022/04/12 03:46:26;;;;;;;;;5.00;4.00;;;;;;;;5000999;28;51446;-61
2022/04/12 03:48:51;;;;;;;;;5.25;5.00;;;;;;;;5003350;28;51098;-61
2022/04/12 03:51:17;;;;;;;;;5.67;5.33;;;;;;;;5000375;28;53137;-60
2022/04/12 03:53:42;;;;;;;;;3.25;3.25;;;;;;;;5002547;28;51078;-61
2022/04/12 03:56:08;;;;;;;;;5.67;5.00;;;;;;;;5002413;28;51106;-61
2022/04/12 03:58:36;;;;;;;;;4.00;4.00;;;;;;;;5004099;28;51445;-60
2022/04/12 04:01:02;;;;;;;;;4.00;4.00;;;;;;;;5003217;28;51040;-61
2022/04/12 04:03:27;;;;;;;;;4.25;3.00;;;;;;;;5006322;28;51154;-61
2022/04/12 04:05:52;;;;;;;;;5.50;5.50;;;;;;;;5003902;28;51063;-59
2022/04/12 04:08:18;;;;;;;;;4.67;3.67;;;;;;;;5005920;28;51194;-61
2022/04/12 04:10:43;;;;;;;;;4.33;4.33;;;;;;;;5006236;28;51145;-61
2022/04/12 04:13:08;;;;;;;;;3.00;3.00;;;;;;;;5007308;28;51311;-61
2022/04/12 04:15:40;;;;;;;;;4.00;4.00;;;;;;;;5007900;28;51322;-61
2022/04/12 04:18:06;;;;;;;;;4.00;4.00;;;;;;;;5004850;28;51391;-61
2022/04/12 04:20:31;;;;;;;;;5.00;5.00;;;;;;;;5005037;28;52710;-61
2022/04/12 04:22:57;;;;;;;;;4.00;4.00;;;;;;;;5005054;28;51055;-61
2022/04/12 04:25:22;;;;;;;;;4.00;4.00;;;;;;;;5005700;28;51615;-61
2022/04/12 04:27:47;;;;;;;;;5.00;4.33;;;;;;;;5003725;28;51346;-61
2022/04/12 04:30:13;;;;;;;;;4.00;4.00;;;;;;;;5005756;28;51052;-60
2022/04/12 04:32:39;;;;;;;;;3.67;3.67;;;;;;;;5005969;28;51060;-60
2022/04/12 04:35:05;;;;;;;;;4.25;4.00;;;;;;;;5002807;28;51536;-61
2022/04/12 04:37:30;;;;;;;;;5.33;4.33;;;;;;;;5002933;28;51934;-60
2022/04/12 04:39:55;;;;;;;;;5.00;4.00;;;;;;;;5003380;28;52397;-60
2022/04/12 04:42:21;;;;;;;;;4.00;4.00;;;;;;;;5006759;28;51173;-60
2022/04/12 04:44:47;;;;;;;;;4.67;4.00;;;;;;;;5005741;28;51097;-59
2022/04/12 04:47:12;;;;;;;;;4.67;4.67;;;;;;;;5009014;28;51423;-61
2022/04/12 04:49:37;;;;;;;;;5.00;5.00;;;;;;;;5006055;28;52073;-59
2022/04/12 04:52:03;;;;;;;;;2.00;1.00;;;;;;;;5002680;28;51022;-60
2022/04/12 04:54:28;;;;;;;;;5.00;5.00;;;;;;;;5006915;28;51230;-61
2022/04/12 04:56:53;;;;;;;;;4.00;4.00;;;;;;;;5007126;28;51292;-60
2022/04/12 04:59:18;;;;;;;;;4.00;4.00;;;;;;;;5004559;28;52021;-60
2022/04/12 05:01:43;;;;;;;;;5.33;4.00;;;;;;;;5006660;28;51081;-60
2022/04/12 05:04:09;;;;;;;;;5.33;5.00;;;;;;;;5003639;28;51728;-60
2022/04/12 05:06:34;;;;;;;;;4.67;4.00;;;;;;;;5003425;28;51374;-61
2022/04/12 05:08:59;;;;;;;;;5.67;4.67;;;;;;;;5003072;28;51257;-60
2022/04/12 05:11:24;;;;;;;;;4.67;4.67;;;;;;;;5005010;28;51105;-61
2022/04/12 05:13:50;;;;;;;;;3.00;3.00;;;;;;;;5002808;28;51277;-60
2022/04/12 05:16:15;;;;;;;;;7.00;7.00;;;;;;;;5004896;28;52496;-62
2022/04/12 05:18:40;;;;;;;;;4.67;4.00;;;;;;;;4995463;28;51179;-61
2022/04/12 05:21:05;;;;;;;;;4.00;3.33;;;;;;;;4997991;28;51141;-61
2022/04/12 05:23:31;;;;;;;;;4.00;4.00;;;;;;;;4994809;28;51236;-61
2022/04/12 05:25:56;;;;;;;;;3.33;3.33;;;;;;;;5002932;28;51083;-61
2022/04/12 05:28:22;;;;;;;;;4.00;4.00;;;;;;;;5002397;28;52306;-61
2022/04/12 05:30:47;;;;;;;;;4.33;4.33;;;;;;;;5004218;28;51072;-61
2022/04/12 05:33:12;;;;;;;;;4.67;4.67;;;;;;;;5002809;28;51117;-61
2022/04/12 05:35:38;;;;;;;;;5.00;4.00;;;;;;;;5003489;28;51406;-61
2022/04/12 05:38:05;;;;;;;;;5.67;5.67;;;;;;;;5003591;28;51997;-60
2022/04/12 05:40:31;;;;;;;;;5.00;5.00;;;;;;;;5002311;28;52509;-61
2022/04/12 05:42:56;;;;;;;;;6.00;5.00;;;;;;;;5007205;28;51537;-61
2022/04/12 05:45:21;;;;;;;;;5.25;5.00;;;;;;;;4999494;28;52298;-61
2022/04/12 05:47:51;;;;;;;;;6.00;5.00;;;;;;;;5002380;28;51181;-61
2022/04/12 05:50:17;;;;;;;;;5.00;5.00;;;;;;;;5002157;28;51053;-61
2022/04/12 05:52:43;;;;;;;;;6.00;5.00;;;;;;;;5003223;28;51283;-61
2022/04/12 05:55:15;;;;;;;;;5.00;5.00;;;;;;;;5004160;28;51417;-61
2022/04/12 05:57:52;;;;;;;;;6.00;5.00;;;;;;;;5000365;28;52237;-61
2022/04/12 06:00:18;;;;;;;;;6.00;5.33;;;;;;;;5003510;28;51042;-61
2022/04/12 06:02:44;;;;;;;;;7.00;6.00;;;;;;;;5002985;28;51035;-61
2022/04/12 06:05:13;;;;;;;;;6.00;6.00;;;;;;;;5005257;28;51369;-61
2022/04/12 06:07:38;;;;;;;;;4.75;4.75;;;;;;;;5003556;28;52090;-61
2022/04/12 06:10:04;;;;;;;;;7.00;7.00;;;;;;;;5008051;28;51155;-61
2022/04/12 06:12:29;;;;;;;;;6.00;5.67;;;;;;;;5004154;28;51290;-60
2022/04/12 06:14:55;;;;;;;;;6.67;6.00;;;;;;;;5000648;28;51060;-61
2022/04/12 06:17:20;;;;;;;;;7.33;7.00;;;;;;;;5003180;28;51725;-61
2022/04/12 06:19:45;;;;;;;;;7.00;6.00;;;;;;;;5003400;28;52241;-61
2022/04/12 06:22:11;;;;;;;;;6.00;6.00;;;;;;;;5005690;28;51578;-61
2022/04/12 06:24:36;;;;;;;;;8.33;8.33;;;;;;;;5002623;28;52123;-61
2022/04/12 06:27:01;;;;;;;;;5.00;5.00;;;;;;;;5003439;28;53051;-61
2022/04/12 06:29:27;;;;;;;;;7.67;7.00;;;;;;;;5003217;28;51010;-62
2022/04/12 06:31:52;;;;;;;;;7.67;7.33;;;;;;;;5004196;28;51205;-61
2022/04/12 06:34:17;;;;;;;;;7.00;6.00;;;;;;;;5004713;28;51080;-62
2022/04/12 06:36:42;;;;;;;;;6.00;6.00;;;;;;;;5000657;28;51346;-61
2022/04/12 06:39:07;;;;;;;;;8.33;8.00;;;;;;;;5003021;28;51125;-59
2022/04/12 06:41:33;;;;;;;;;6.00;5.33;;;;;;;;5001020;28;51294;-68
2022/04/12 06:43:58;;;;;;;;;10.67;10.67;;;;;;;;5010952;28;51245;-68
2022/04/12 06:46:23;;;;;;;;;8.67;8.67;;;;;;;;5010409;28;53209;-68
2022/04/12 06:48:48;;;;;;;;;5.00;5.00;;;;;;;;5011170;28;51113;-68
2022/04/12 06:51:14;;;;;;;;;7.00;6.33;;;;;;;;5008744;28;51328;-70
2022/04/12 06:53:39;;;;;;;;;6.67;6.00;;;;;;;;5011314;28;51105;-68
2022/04/12 06:56:06;;;;;;;;;5.00;5.00;;;;;;;;5010559;28;51973;-67
2022/04/12 06:58:33;;;;;;;;;7.67;7.33;;;;;;;;5010630;28;51180;-62
2022/04/12 07:00:58;;;;;;;;;6.00;5.00;;;;;;;;5008859;28;51096;-62
2022/04/12 07:03:23;;;;;;;;;5.33;5.00;;;;;;;;5011909;28;51160;-61
2022/04/12 07:05:49;;;;;;;;;6.33;6.33;;;;;;;;5004541;28;51096;-62
2022/04/12 07:08:14;;;;;;;;;5.00;4.33;;;;;;;;5010810;28;51181;-62
2022/04/12 07:10:39;;;;;;;;;6.00;6.00;;;;;;;;5007566;28;51006;-63
2022/04/12 07:13:05;;;;;;;;;4.00;4.00;;;;;;;;5011806;28;51292;-63
2022/04/12 07:15:30;;;;;;;;;4.00;4.00;;;;;;;;5008051;28;51207;-63
2022/04/12 07:17:55;;;;;;;;;7.67;6.67;;;;;;;;5010478;28;50954;-62
2022/04/12 07:20:20;;;;;;;;;7.00;7.00;;;;;;;;5010755;28;51067;-61
2022/04/12 07:22:46;;;;;;;;;7.33;6.00;;;;;;;;5011020;28;51294;-62
2022/04/12 07:25:11;;;;;;;;;7.33;7.00;;;;;;;;5010589;28;52027;-61
2022/04/12 07:27:37;;;;;;;;;5.00;4.67;;;;;;;;5010398;28;51005;-60
2022/04/12 07:30:06;;;;;;;;;5.00;5.00;;;;;;;;5009972;28;51221;-62
2022/04/12 07:32:32;;;;;;;;;5.00;4.00;;;;;;;;5009950;28;51330;-61
2022/04/12 07:34:57;;;;;;;;;5.33;4.67;;;;;;;;5013155;28;51866;-62
2022/04/12 07:37:22;;;;;;;;;7.00;6.67;;;;;;;;5014410;28;50954;-61
2022/04/12 07:39:47;;;;;;;;;2.00;1.67;;;;;;;;5010943;28;51006;-61
2022/04/12 07:42:13;;;;;;;;;3.67;3.67;;;;;;;;5014095;28;51089;-62
2022/04/12 07:44:39;;;;;;;;;5.33;5.33;;;;;;;;5012033;28;53002;-63
2022/04/12 07:47:04;;;;;;;;;4.00;4.00;;;;;;;;5013686;28;51114;-61
2022/04/12 07:49:30;;;;;;;;;7.00;7.00;;;;;;;;5013178;28;51072;-62
2022/04/12 07:51:55;;;;;;;;;5.00;5.00;;;;;;;;5014097;28;51259;-60
2022/04/12 07:54:20;;;;;;;;;6.67;5.67;;;;;;;;5013116;28;52845;-61
2022/04/12 07:56:45;;;;;;;;;4.00;4.00;;;;;;;;5013729;28;51387;-61
2022/04/12 07:59:11;;;;;;;;;4.33;4.00;;;;;;;;5011663;28;51244;-61
2022/04/12 08:01:36;;;;;;;;;5.00;5.00;;;;;;;;5012881;28;51081;-62
2022/04/12 08:04:02;;;;;;;;;3.33;3.33;;;;;;;;5013050;28;52017;-61
2022/04/12 08:06:27;;;;;;;;;7.67;6.00;;;;;;;;5013400;28;50915;-62
2022/04/12 08:08:52;;;;;;;;;4.67;4.67;;;;;;;;5015066;28;50892;-63
2022/04/12 08:11:17;;;;;;;;;6.67;6.00;;;;;;;;5013551;28;51098;-63
2022/04/12 08:13:44;;;;;;;;;7.00;6.33;;;;;;;;5013655;28;51883;-62
2022/04/12 08:16:09;;;;;;;;;1.33;1.33;;;;;;;;5011073;28;51061;-63
2022/04/12 08:18:35;;;;;;;;;3.00;3.00;;;;;;;;5012627;28;52496;-63
2022/04/12 08:21:00;;;;;;;;;4.67;4.00;;;;;;;;5013236;28;51838;-61
2022/04/12 08:23:25;;;;;;;;;4.00;4.00;;;;;;;;5013061;28;51118;-61
2022/04/12 08:25:51;;;;;;;;;4.00;4.00;;;;;;;;5012330;28;51028;-62
2022/04/12 08:28:17;;;;;;;;;4.00;3.33;;;;;;;;5013129;28;51068;-62
2022/04/12 08:30:42;;;;;;;;;161.00;147.00;;;;;;;;5012358;28;51266;-63
2022/04/12 08:33:07;;;;;;;;;3.67;3.00;;;;;;;;5010570;28;54118;-62
2022/04/12 08:35:33;;;;;;;;;5.33;5.00;;;;;;;;5012325;28;51066;-62
2022/04/12 08:37:58;;;;;;;;;4.00;4.00;;;;;;;;5010593;28;51287;-62
2022/04/12 08:40:23;;;;;;;;;20.00;18.33;;;;;;;;5012426;28;51294;-63
2022/04/12 08:42:48;;;;;;;;;1.00;1.00;;;;;;;;5012276;28;51923;-61
2022/04/12 08:45:14;;;;;;;;;4.33;4.00;;;;;;;;5011354;28;51033;-63
2022/04/12 08:47:40;;;;;;;;;3.33;2.00;;;;;;;;5012719;28;51024;-63
2022/04/12 08:50:06;;;;;;;;;3.00;2.00;;;;;;;;5010563;28;51303;-62
2022/04/12 08:52:31;;;;;;;;;3.67;3.67;;;;;;;;5012767;28;54699;-62
2022/04/12 08:54:57;;;;;;;;;3.00;3.00;;;;;;;;5018445;28;51276;-62
2022/04/12 08:57:22;;;;;;;;;3.00;3.00;;;;;;;;5009588;28;51263;-63
2022/04/12 08:59:48;;;;;;;;;3.67;3.67;;;;;;;;5011001;28;51280;-62
2022/04/12 09:02:13;;;;;;;;;2.33;2.00;;;;;;;;5011334;28;51334;-61
2022/04/12 09:04:39;;;;;;;;;3.00;3.00;;;;;;;;5011314;28;51139;-63
2022/04/12 09:07:08;;;;;;;;;3.67;3.67;;;;;;;;5012364;28;51166;-64
2022/04/12 09:09:33;;;;;;;;;5.67;3.00;;;;;;;;5011596;28;51352;-62
2022/04/12 09:12:02;;;;;;;;;3.67;3.67;;;;;;;;5011456;28;51611;-63
2022/04/12 09:14:36;;;;;;;;;4.67;4.67;;;;;;;;5012105;28;51055;-63
2022/04/12 09:17:02;;;;;;;;;5.00;4.00;;;;;;;;5012389;28;51203;-62
2022/04/12 09:19:38;;;;;;;;;3.00;2.67;;;;;;;;5011573;28;51078;-62
2022/04/12 09:22:08;;;;;;;;;11.33;10.67;;;;;;;;5012089;28;52310;-64
2022/04/12 09:24:36;;;;;;;;;18.75;18.50;;;;;;;;5011838;28;51470;-69
2022/04/12 09:27:01;;;;;;;;;3.00;3.00;;;;;;;;5012469;28;51086;-68
2022/04/12 09:29:27;;;;;;;;;3.33;3.33;;;;;;;;4994080;28;51070;-67
2022/04/12 09:31:59;;;;;;;;;2.00;2.00;;;;;;;;5011705;28;51926;-68
2022/04/12 09:34:25;;;;;;;;;5.00;3.00;;;;;;;;5011598;28;50900;-56
2022/04/12 09:36:50;;;;;;;;;4.00;3.00;;;;;;;;5009414;28;51063;-58
2022/04/12 09:39:16;;;;;;;;;4.00;3.00;;;;;;;;5011301;28;51229;-62
2022/04/12 09:41:41;;;;;;;;;4.67;3.00;;;;;;;;5008237;28;51240;-61
2022/04/12 09:44:11;;;;;;;;;3.00;3.00;;;;;;;;5006179;28;51187;-60
2022/04/12 09:46:37;;;;;;;;;4.67;4.33;;;;;;;;5008608;28;52277;-61
2022/04/12 09:49:03;;;;;;;;;4.00;3.00;;;;;;;;5011695;28;51002;-61
2022/04/12 09:51:28;;;;;;;;;58.00;46.75;;;;;;;;5007983;28;52268;-62
2022/04/12 09:53:53;;;;;;;;;3.00;2.00;;;;;;;;5012021;28;50967;-62
2022/04/12 09:56:18;;;;;;;;;3.67;3.00;;;;;;;;5007897;28;51371;-62
2022/04/12 09:58:45;;;;;;;;;5.67;5.00;;;;;;;;5009794;28;51276;-60
2022/04/12 10:01:11;;;;;;;;;3.00;2.67;;;;;;;;5008977;28;50950;-60
2022/04/12 10:03:37;;;;;;;;;3.00;3.00;;;;;;;;5011145;28;51337;-58
2022/04/12 10:06:03;;;;;;;;;4.67;3.67;;;;;;;;5008507;28;51142;-60
2022/04/12 10:08:30;;;;;;;;;3.33;3.33;;;;;;;;5011577;28;51283;-59
2022/04/12 10:10:55;;;;;;;;;3.67;3.00;;;;;;;;5008933;28;52080;-59
2022/04/12 10:13:21;;;;;;;;;4.67;4.67;;;;;;;;5010753;28;51418;-60
2022/04/12 10:15:46;;;;;;;;;5.00;5.00;;;;;;;;5008658;28;51104;-60
2022/04/12 10:18:18;;;;;;;;;2.33;2.33;;;;;;;;5011044;28;51322;-59
2022/04/12 10:20:43;;;;;;;;;3.33;3.00;;;;;;;;5011442;28;52714;-60
2022/04/12 10:23:09;;;;;;;;;3.00;3.00;;;;;;;;5011254;28;51409;-60
2022/04/12 10:25:35;;;;;;;;;15.00;13.67;;;;;;;;5012181;28;50989;-59
2022/04/12 10:28:03;;;;;;;;;5.00;5.00;;;;;;;;5012139;28;51332;-60
2022/04/12 10:30:29;;;;;;;;;5.67;5.33;;;;;;;;5011969;28;52058;-61
2022/04/12 10:33:03;;;;;;;;;6.33;6.33;;;;;;;;5011027;28;50929;-60
2022/04/12 10:35:29;;;;;;;;;6.00;5.33;;;;;;;;5011495;28;51212;-58
2022/04/12 10:37:57;;;;;;;;;5.00;4.00;;;;;;;;5010146;28;51176;-59
2022/04/12 10:40:23;;;;;;;;;4.00;3.33;;;;;;;;5011201;28;51145;-60
2022/04/12 10:42:49;;;;;;;;;3.00;3.00;;;;;;;;5011494;28;50900;-60
2022/04/12 10:45:14;;;;;;;;;7.33;6.00;;;;;;;;5010254;28;51057;-59
2022/04/12 10:47:43;;;;;;;;;4.00;4.00;;;;;;;;5010601;28;50962;-60
2022/04/12 10:50:13;;;;;;;;;6.67;5.00;;;;;;;;5009602;28;51879;-59
2022/04/12 10:52:41;;;;;;;;;4.00;3.00;;;;;;;;5011612;28;50976;-59
2022/04/12 10:55:07;;;;;;;;;3.67;3.67;;;;;;;;5011068;28;51018;-59
2022/04/12 10:57:33;;;;;;;;;7.00;6.00;;;;;;;;5011431;28;51107;-60
2022/04/12 11:00:09;;;;;;;;;4.00;3.33;;;;;;;;5011725;28;51867;-60
2022/04/12 11:02:42;;;;;;;;;3.00;3.00;;;;;;;;5011408;28;51170;-60
2022/04/12 11:05:27;;;;;;;;;4.00;4.00;;;;;;;;5011330;28;51079;-60
2022/04/12 11:07:52;;;;;;;;;4.00;4.00;;;;;;;;5012254;28;51055;-60
2022/04/12 11:10:19;;;;;;;;;3.00;3.00;;;;;;;;5014217;28;51913;-59
2022/04/12 11:12:44;;;;;;;;;4.00;4.00;;;;;;;;5013860;28;50897;-59
2022/04/12 11:15:20;;;;;;;;;4.33;3.33;;;;;;;;5006076;28;51052;-61
2022/04/12 11:17:46;;;;;;;;;3.00;3.00;;;;;;;;5009435;28;51215;-60
2022/04/12 11:20:19;;;;;;;;;3.00;3.00;;;;;;;;5014775;28;51585;-61
2022/04/12 11:22:54;;;;;;;;;4.00;4.00;;;;;;;;5014439;28;51016;-60
2022/04/12 11:25:21;;;;;;;;;5.33;5.00;;;;;;;;5013206;28;50908;-60
2022/04/12 11:27:47;;;;;;;;;2.67;2.67;;;;;;;;5013200;28;51024;-60
2022/04/12 11:30:15;;;;;;;;;3.67;3.67;;;;;;;;5014108;28;53082;-61
2022/04/12 11:32:43;;;;;;;;;3.33;3.00;;;;;;;;5014103;28;51018;-61
2022/04/12 11:35:08;;;;;;;;;3.00;3.00;;;;;;;;5013882;28;50972;-61
2022/04/12 11:37:38;;;;;;;;;3.00;2.00;;;;;;;;5014149;28;51308;-59
2022/04/12 11:40:03;;;;;;;;;4.33;4.33;;;;;;;;5014529;28;52084;-59
2022/04/12 11:42:29;;;;;;;;;5.33;4.67;;;;;;;;5013205;28;51033;-60
2022/04/12 11:44:55;;;;;;;;;3.00;3.00;;;;;;;;5014338;28;51089;-60
2022/04/12 11:47:20;;;;;;;;;3.33;3.00;;;;;;;;5013864;28;50984;-60
2022/04/12 11:49:46;;;;;;;;;4.33;4.00;;;;;;;;5012071;28;52563;-60
2022/04/12 11:52:12;;;;;;;;;4.00;3.67;;;;;;;;5014084;28;50940;-60
2022/04/12 11:54:39;;;;;;;;;4.00;4.00;;;;;;;;5013294;28;51204;-60
2022/04/12 11:57:04;;;;;;;;;6.33;5.00;;;;;;;;5014467;28;51188;-60
2022/04/12 11:59:31;;;;;;;;;4.00;3.00;;;;;;;;5013970;28;51773;-60
2022/04/12 12:01:59;;;;;;;;;4.00;4.00;;;;;;;;5013800;28;51190;-59
2022/04/12 12:04:29;;;;;;;;;4.67;4.00;;;;;;;;5014005;28;51020;-60
2022/04/12 12:06:58;;;;;;;;;7.00;6.00;;;;;;;;5013845;28;51363;-61
2022/04/12 12:09:23;;;;;;;;;14.00;13.00;;;;;;;;5013611;28;51907;-60
2022/04/12 12:11:49;;;;;;;;;4.33;3.00;;;;;;;;5013753;28;50866;-60
2022/04/12 12:14:14;;;;;;;;;2.33;2.33;;;;;;;;4999209;28;50968;-60
2022/04/12 12:16:41;;;;;;;;;5.67;5.33;;;;;;;;5014124;28;51128;-60
2022/04/12 12:19:06;;;;;;;;;5.00;4.33;;;;;;;;5013132;28;52798;-60
2022/04/12 12:21:31;;;;;;;;;4.67;4.00;;;;;;;;5013838;28;51163;-60
2022/04/12 12:23:57;;;;;;;;;3.33;3.00;;;;;;;;5014134;28;51114;-61
2022/04/12 12:26:28;;;;;;;;;4.33;3.67;;;;;;;;5014235;28;51150;-60
2022/04/12 12:28:56;;;;;;;;;4.00;4.00;;;;;;;;5013219;28;51917;-60
2022/04/12 12:31:21;;;;;;;;;4.00;4.00;;;;;;;;5013556;28;51122;-60
2022/04/12 12:33:47;;;;;;;;;3.00;3.00;;;;;;;;5013959;28;51159;-60
2022/04/12 12:36:20;;;;;;;;;5.00;5.00;;;;;;;;5013662;28;51282;-60
2022/04/12 12:38:46;;;;;;;;;3.67;3.00;;;;;;;;5011149;28;51957;-60
2022/04/12 12:41:22;;;;;;;;;5.67;4.67;;;;;;;;5013495;28;51171;-59
2022/04/12 12:43:51;;;;;;;;;22.50;21.25;;;;;;;;5013659;28;51208;-59
2022/04/12 12:46:18;;;;;;;;;2.67;2.67;;;;;;;;5013449;28;50928;-61
2022/04/12 12:48:43;;;;;;;;;4.00;3.33;;;;;;;;5013613;28;51855;-60
2022/04/12 12:51:10;;;;;;;;;3.00;3.00;;;;;;;;5013239;28;51113;-60
2022/04/12 12:53:37;;;;;;;;;5.00;3.67;;;;;;;;5012274;28;51102;-60
2022/04/12 12:56:13;;;;;;;;;0.00;0.00;;;;;;;;5013523;28;51211;-60
2022/04/12 12:58:38;;;;;;;;;4.00;4.00;;;;;;;;5011974;28;51834;-60
2022/04/12 13:01:04;;;;;;;;;2.00;2.00;;;;;;;;5013080;28;51246;-60
2022/04/12 13:03:29;;;;;;;;;2.00;2.00;;;;;;;;5012954;28;51133;-59
2022/04/12 13:05:54;;;;;;;;;2.67;2.67;;;;;;;;5012294;28;51048;-59
2022/04/12 13:08:27;;;;;;;;;3.33;2.67;;;;;;;;5012440;28;51630;-60
2022/04/12 13:10:55;;;;;;;;;2.00;2.00;;;;;;;;5012889;28;51125;-60
2022/04/12 13:13:20;;;;;;;;;2.33;1.67;;;;;;;;5013133;28;51079;-60
2022/04/12 13:15:45;;;;;;;;;3.00;2.00;;;;;;;;5012209;28;51392;-61
2022/04/12 13:18:11;;;;;;;;;2.00;2.00;;;;;;;;5013288;28;51063;-60
2022/04/12 13:20:36;;;;;;;;;3.00;3.00;;;;;;;;5012848;28;51036;-60
2022/04/12 13:23:05;;;;;;;;;3.00;3.00;;;;;;;;5011321;28;51074;-59
2022/04/12 13:25:30;;;;;;;;;3.33;3.00;;;;;;;;5011967;28;51075;-60
2022/04/12 13:27:56;;;;;;;;;4.00;4.00;;;;;;;;5027571;28;52138;-61
2022/04/12 13:30:21;;;;;;;;;6.00;5.00;;;;;;;;5011841;28;51077;-60
2022/04/12 13:32:47;;;;;;;;;4.67;3.00;;;;;;;;5012855;28;51017;-60
2022/04/12 13:35:15;;;;;;;;;5.00;4.00;;;;;;;;5012532;28;51388;-60
2022/04/12 13:37:41;;;;;;;;;3.00;3.00;;;;;;;;5012540;28;51853;-59
2022/04/12 13:40:06;;;;;;;;;4.67;3.00;;;;;;;;5012425;28;50968;-60
2022/04/12 13:42:32;;;;;;;;;3.00;2.67;;;;;;;;5013329;28;50961;-60
2022/04/12 13:44:57;;;;;;;;;2.33;2.33;;;;;;;;5012512;28;51337;-59
2022/04/12 13:47:23;;;;;;;;;2.00;2.00;;;;;;;;5011895;28;52991;-59
2022/04/12 13:49:48;;;;;;;;;3.00;2.67;;;;;;;;5012082;28;50925;-59
2022/04/12 13:52:13;;;;;;;;;3.00;3.00;;;;;;;;5012589;28;51081;-59
2022/04/12 13:54:39;;;;;;;;;2.33;2.00;;;;;;;;5004252;28;51218;-59
2022/04/12 13:57:04;;;;;;;;;4.00;2.67;;;;;;;;5007503;28;51254;-59
2022/04/12 13:59:29;;;;;;;;;3.00;3.00;;;;;;;;5012062;28;50986;-60
2022/04/12 14:01:54;;;;;;;;;2.00;2.00;;;;;;;;5012250;28;51065;-59
2022/04/12 14:04:21;;;;;;;;;4.00;4.00;;;;;;;;5011919;28;51025;-59
2022/04/12 14:06:46;;;;;;;;;2.67;2.00;;;;;;;;5010641;28;53073;-60
2022/04/12 14:09:11;;;;;;;;;3.67;3.67;;;;;;;;5010542;28;50994;-60
2022/04/12 14:11:37;;;;;;;;;3.33;3.00;;;;;;;;5012751;28;51060;-60
2022/04/12 14:14:04;;;;;;;;;1.00;0.67;;;;;;;;5012425;28;51393;-58
2022/04/12 14:16:29;;;;;;;;;4.00;3.00;;;;;;;;5012160;28;51178;-59
2022/04/12 14:18:54;;;;;;;;;4.33;4.33;;;;;;;;5010472;28;50927;-59
2022/04/12 14:21:19;;;;;;;;;2.67;2.00;;;;;;;;5011257;28;51078;-59
2022/04/12 14:23:45;;;;;;;;;2.33;2.33;;;;;;;;5012104;28;51281;-59
2022/04/12 14:26:11;;;;;;;;;4.67;4.00;;;;;;;;5011555;28;51720;-59
2022/04/12 14:28:37;;;;;;;;;7.00;6.67;;;;;;;;5011964;28;51195;-60
2022/04/12 14:31:06;;;;;;;;;3.00;2.00;;;;;;;;5011884;28;51262;-61
2022/04/12 14:33:32;;;;;;;;;2.00;2.00;;;;;;;;5010963;28;51215;-60
2022/04/12 14:35:57;;;;;;;;;4.00;3.67;;;;;;;;5009929;28;52986;-60
2022/04/12 14:38:23;;;;;;;;;3.00;2.33;;;;;;;;5010283;28;51160;-60